createdAt,value
2022-09-25T00:01:24.694Z,6.28
2022-09-25T00:03:52.656Z,6.20
2022-09-25T00:06:23.979Z,6.00
2022-09-25T00:08:53.841Z,5.55
2022-09-25T00:11:23.896Z,5.93
2022-09-25T00:13:52.582Z,6.00
2022-09-25T00:16:23.733Z,5.80
2022-09-25T00:19:09.411Z,6.40
2022-09-25T00:21:39.130Z,6.50
2022-09-25T00:24:09.478Z,6.63
2022-09-25T00:26:41.467Z,7.43
2022-09-25T00:29:14.743Z,6.82
2022-09-25T00:31:42.618Z,6.90
2022-09-25T00:34:12.180Z,6.88
2022-09-25T00:36:41.603Z,6.30
2022-09-25T00:39:09.503Z,6.18
2022-09-25T00:41:37.443Z,6.45
2022-09-25T00:44:05.676Z,5.70
2022-09-25T00:46:37.689Z,5.57
2022-09-25T00:49:11.106Z,6.30
2022-09-25T00:51:45.599Z,6.28
2022-09-25T00:54:17.747Z,6.22
2022-09-25T00:56:49.831Z,7.03
2022-09-25T00:59:20.539Z,6.22
2022-09-25T01:01:48.739Z,6.40
2022-09-25T01:04:18.246Z,6.38
2022-09-25T01:06:47.419Z,5.93
2022-09-25T01:09:15.497Z,6.28
2022-09-25T01:11:45.141Z,5.85
2022-09-25T01:14:15.046Z,5.90
2022-09-25T01:16:47.963Z,6.25
2022-09-25T01:19:27.222Z,6.80
2022-09-25T01:22:06.927Z,6.47
2022-09-25T01:25:06.099Z,7.05
2022-09-25T01:27:47.071Z,7.63
2022-09-25T01:30:19.132Z,7.40
2022-09-25T01:32:57.953Z,6.97
2022-09-25T01:35:35.494Z,7.72
2022-09-25T01:38:10.986Z,7.35
2022-09-25T01:40:43.933Z,7.20
2022-09-25T01:43:16.458Z,7.20
2022-09-25T01:45:52.035Z,7.20
2022-09-25T01:48:25.055Z,6.55
2022-09-25T01:50:58.965Z,7.72
2022-09-25T01:53:31.701Z,7.30
2022-09-25T01:56:05.435Z,7.30
2022-09-25T01:58:37.631Z,7.47
2022-09-25T02:01:11.529Z,7.70
2022-09-25T02:03:44.097Z,7.47
2022-09-25T02:06:16.123Z,7.10
2022-09-25T02:08:49.404Z,6.80
2022-09-25T02:11:17.886Z,7.20
2022-09-25T02:13:50.090Z,6.65
2022-09-25T02:16:23.653Z,6.43
2022-09-25T02:19:09.046Z,6.30
2022-09-25T02:21:46.472Z,6.85
2022-09-25T02:24:20.935Z,5.82
2022-09-25T02:26:49.511Z,5.75
2022-09-25T02:29:18.200Z,5.40
2022-09-25T02:31:50.922Z,5.85
2022-09-25T02:34:19.114Z,5.70
2022-09-25T02:36:47.283Z,5.43
2022-09-25T02:39:18.785Z,5.38
2022-09-25T02:42:02.092Z,6.68
2022-09-25T02:44:42.252Z,6.45
2022-09-25T02:47:24.195Z,6.07
2022-09-25T02:49:58.639Z,6.13
2022-09-25T02:52:34.299Z,6.38
2022-09-25T02:55:07.920Z,5.90
2022-09-25T02:57:45.074Z,5.38
2022-09-25T03:00:14.294Z,4.55
2022-09-25T03:02:49.662Z,4.85
2022-09-25T03:05:21.376Z,4.20
2022-09-25T03:08:07.214Z,3.50
2022-09-25T03:10:37.795Z,3.17
2022-09-25T03:13:17.195Z,3.05
2022-09-25T03:15:47.712Z,2.80
2022-09-25T03:18:17.074Z,2.67
2022-09-25T03:20:45.122Z,2.80
2022-09-25T03:23:13.158Z,3.00
2022-09-25T03:25:42.775Z,2.97
2022-09-25T03:28:14.095Z,2.85
2022-09-25T03:30:42.326Z,2.70
2022-09-25T03:33:10.638Z,2.97
2022-09-25T03:35:40.194Z,2.70
2022-09-25T03:38:10.347Z,2.90
2022-09-25T03:40:38.208Z,2.80
2022-09-25T03:45:33.134Z,2.88
2022-09-25T03:48:00.837Z,2.80
2022-09-25T03:50:28.684Z,2.63
2022-09-25T03:52:58.095Z,2.80
2022-09-25T03:55:26.441Z,2.40
2022-09-25T03:57:54.446Z,2.70
2022-09-25T04:00:22.828Z,2.33
2022-09-25T04:02:51.017Z,2.80
2022-09-25T04:05:21.361Z,2.30
2022-09-25T04:07:49.205Z,2.47
2022-09-25T04:10:18.427Z,2.42
2022-09-25T04:12:46.271Z,2.50
2022-09-25T04:15:14.834Z,2.38
2022-09-25T04:17:42.626Z,2.30
2022-09-25T04:20:10.916Z,2.40
2022-09-25T04:22:38.631Z,2.40
2022-09-25T04:25:07.539Z,2.30
2022-09-25T04:27:37.700Z,2.30
2022-09-25T04:30:07.029Z,2.50
2022-09-25T04:32:52.215Z,2.72
2022-09-25T04:35:20.527Z,2.03
2022-09-25T04:37:48.298Z,2.45
2022-09-25T04:40:16.237Z,2.65
2022-09-25T04:42:45.937Z,2.80
2022-09-25T04:45:13.826Z,2.60
2022-09-25T04:47:41.601Z,3.00
2022-09-25T04:50:10.150Z,3.10
2022-09-25T04:52:38.557Z,3.25
2022-09-25T04:55:07.257Z,3.03
2022-09-25T04:57:57.318Z,3.80
2022-09-25T05:00:26.206Z,3.10
2022-09-25T05:02:54.319Z,3.03
2022-09-25T05:05:23.959Z,3.42
2022-09-25T05:07:54.097Z,3.22
2022-09-25T05:10:21.956Z,3.55
2022-09-25T05:12:50.298Z,3.70
2022-09-25T05:15:18.317Z,3.65
2022-09-25T05:17:47.707Z,3.67
2022-09-25T05:20:16.228Z,3.72
2022-09-25T05:22:44.641Z,3.50
2022-09-25T05:25:12.875Z,3.88
2022-09-25T05:27:40.962Z,4.10
2022-09-25T05:30:11.815Z,4.18
2022-09-25T05:32:40.654Z,4.10
2022-09-25T05:35:11.666Z,4.32
2022-09-25T05:37:40.139Z,4.47
2022-09-25T05:40:11.086Z,4.15
2022-09-25T05:42:39.615Z,4.38
2022-09-25T05:45:08.297Z,4.78
2022-09-25T05:47:36.198Z,4.00
2022-09-25T05:50:04.591Z,4.93
2022-09-25T05:52:33.942Z,5.22
2022-09-25T05:55:03.363Z,4.78
2022-09-25T05:57:32.476Z,4.70
2022-09-25T06:00:00.551Z,5.60
2022-09-25T06:02:29.011Z,4.93
2022-09-25T06:04:56.841Z,5.38
2022-09-25T06:07:24.628Z,5.03
2022-09-25T06:09:53.743Z,5.40
2022-09-25T06:12:23.339Z,4.90
2022-09-25T06:14:51.658Z,4.68
2022-09-25T06:17:19.995Z,5.28
2022-09-25T06:19:49.146Z,4.70
2022-09-25T06:22:16.917Z,5.65
2022-09-25T06:24:51.830Z,5.43
2022-09-25T06:27:21.489Z,5.65
2022-09-25T06:29:49.266Z,5.57
2022-09-25T06:32:17.242Z,5.53
2022-09-25T06:34:45.374Z,5.63
2022-09-25T06:37:13.110Z,5.85
2022-09-25T06:39:40.840Z,5.90
2022-09-25T06:42:09.018Z,6.18
2022-09-25T06:44:39.168Z,6.18
2022-09-25T06:47:07.233Z,5.70
2022-09-25T06:49:35.085Z,6.20
2022-09-25T06:52:03.046Z,6.03
2022-09-25T06:54:31.685Z,6.28
2022-09-25T06:56:59.455Z,6.40
2022-09-25T06:59:27.239Z,7.20
2022-09-25T07:02:16.715Z,7.22
2022-09-25T07:04:43.573Z,6.43
2022-09-25T07:07:11.431Z,6.68
2022-09-25T07:09:39.196Z,6.50
2022-09-25T07:12:07.181Z,6.15
2022-09-25T07:14:35.321Z,6.65
2022-09-25T07:17:04.443Z,6.85
2022-09-25T07:19:32.249Z,6.68
2022-09-25T07:22:00.380Z,6.93
2022-09-25T07:24:30.186Z,6.50
2022-09-25T07:26:58.167Z,6.47
2022-09-25T07:29:26.038Z,6.78
2022-09-25T07:31:54.785Z,6.63
2022-09-25T07:34:24.154Z,6.32
2022-09-25T07:36:52.874Z,6.68
2022-09-25T07:39:20.837Z,6.70
2022-09-25T07:41:48.968Z,6.22
2022-09-25T07:44:28.510Z,6.60
2022-09-25T07:46:57.485Z,7.03
2022-09-25T07:49:26.634Z,6.93
2022-09-25T07:51:54.530Z,5.90
2022-09-25T07:54:22.451Z,6.72
2022-09-25T07:56:50.239Z,6.70
2022-09-25T07:59:18.013Z,7.28
2022-09-25T08:01:52.665Z,6.38
2022-09-25T08:04:21.637Z,6.57
2022-09-25T08:06:50.814Z,6.45
2022-09-25T08:09:18.631Z,7.18
2022-09-25T08:11:46.834Z,7.05
2022-09-25T08:14:15.746Z,8.35
2022-09-25T08:16:43.951Z,8.20
2022-09-25T08:19:12.667Z,8.85
2022-09-25T08:21:40.565Z,9.10
2022-09-25T08:24:10.807Z,9.40
2022-09-25T08:26:38.715Z,9.65
2022-09-25T08:29:08.157Z,10.95
2022-09-25T08:31:36.073Z,11.55
2022-09-25T08:34:21.428Z,12.82
2022-09-25T08:36:51.878Z,12.82
2022-09-25T08:39:21.166Z,14.10
2022-09-25T08:41:52.500Z,14.48
2022-09-25T08:44:27.189Z,14.80
2022-09-25T08:47:19.500Z,13.98
2022-09-25T08:49:58.701Z,13.32
2022-09-25T08:52:26.643Z,14.65
2022-09-25T08:54:55.833Z,15.23
2022-09-25T08:57:31.362Z,15.45
2022-09-25T09:00:03.197Z,16.48
2022-09-25T09:02:39.433Z,15.93
2022-09-25T09:05:17.358Z,16.30
2022-09-25T09:07:49.983Z,16.02
2022-09-25T09:10:31.836Z,16.38
2022-09-25T09:13:02.863Z,17.83
2022-09-25T09:15:39.181Z,16.25
2022-09-25T09:18:20.558Z,16.70
2022-09-25T09:20:53.489Z,15.43
2022-09-25T09:23:23.886Z,16.67
2022-09-25T09:26:02.658Z,16.50
2022-09-25T09:28:55.182Z,18.00
2022-09-25T09:31:31.383Z,19.05
2022-09-25T09:34:10.674Z,19.75
2022-09-25T09:36:47.491Z,20.13
2022-09-25T09:39:22.762Z,21.38
2022-09-25T09:42:01.780Z,20.58
2022-09-25T09:44:40.945Z,20.30
2022-09-25T09:47:33.583Z,21.65
2022-09-25T09:50:14.722Z,21.02
2022-09-25T09:52:45.470Z,21.13
2022-09-25T09:55:23.829Z,23.13
2022-09-25T09:57:55.597Z,21.65
2022-09-25T10:00:25.730Z,22.45
2022-09-25T10:02:59.281Z,21.55
2022-09-25T10:05:31.347Z,21.73
2022-09-25T10:07:59.335Z,21.40
2022-09-25T10:10:37.265Z,22.35
2022-09-25T10:13:12.279Z,22.40
2022-09-25T10:15:45.971Z,23.48
2022-09-25T10:18:15.614Z,23.02
2022-09-25T10:20:48.671Z,23.42
2022-09-25T10:23:32.739Z,22.40
2022-09-25T10:26:01.033Z,22.05
2022-09-25T10:28:34.188Z,22.55
2022-09-25T10:31:03.865Z,21.83
2022-09-25T10:33:33.273Z,21.42
2022-09-25T10:36:01.483Z,22.08
2022-09-25T10:38:35.367Z,21.58
2022-09-25T10:41:07.457Z,21.73
2022-09-25T10:43:50.567Z,21.08
2022-09-25T10:46:48.796Z,20.65
2022-09-25T10:49:38.095Z,20.17
2022-09-25T10:52:08.190Z,21.30
2022-09-25T10:54:41.852Z,20.90
2022-09-25T10:57:33.893Z,20.25
2022-09-25T11:00:06.176Z,21.63
2022-09-25T11:02:39.014Z,20.15
2022-09-25T11:05:09.137Z,19.90
2022-09-25T11:07:36.918Z,19.35
2022-09-25T11:10:05.554Z,19.40
2022-09-25T11:12:33.550Z,19.17
2022-09-25T11:15:06.197Z,19.77
2022-09-25T11:17:39.398Z,20.73
2022-09-25T11:20:27.716Z,19.20
2022-09-25T11:23:04.676Z,17.55
2022-09-25T11:25:37.663Z,16.05
2022-09-25T11:28:13.659Z,16.58
2022-09-25T11:30:58.273Z,18.00
2022-09-25T11:33:42.199Z,16.30
2022-09-25T11:36:16.803Z,15.40
2022-09-25T11:39:05.441Z,15.90
2022-09-25T11:41:38.624Z,16.55
2022-09-25T11:44:19.861Z,15.05
2022-09-25T11:46:59.837Z,15.77
2022-09-25T11:49:31.312Z,16.02
2022-09-25T11:52:37.206Z,15.38
2022-09-25T11:55:45.737Z,17.02
2022-09-25T11:58:39.161Z,17.02
2022-09-25T12:01:16.787Z,15.40
2022-09-25T12:04:07.557Z,14.45
2022-09-25T12:06:55.084Z,16.10
2022-09-25T12:09:54.570Z,14.93
2022-09-25T12:12:31.431Z,14.98
2022-09-25T12:15:09.116Z,16.80
2022-09-25T12:17:44.296Z,15.27
2022-09-25T12:20:21.743Z,15.52
2022-09-25T12:23:01.768Z,16.00
2022-09-25T12:25:47.890Z,15.63
2022-09-25T12:28:27.683Z,16.27
2022-09-25T12:31:06.034Z,15.98
2022-09-25T12:33:42.023Z,14.15
2022-09-25T12:36:17.676Z,16.08
2022-09-25T12:38:55.385Z,15.57
2022-09-25T12:41:29.821Z,14.45
2022-09-25T12:44:05.066Z,13.65
2022-09-25T12:46:41.917Z,13.38
2022-09-25T12:49:14.701Z,13.13
2022-09-25T12:51:47.303Z,11.63
2022-09-25T12:54:25.266Z,10.43
2022-09-25T12:56:57.962Z,10.18
2022-09-25T12:59:31.826Z,9.75
2022-09-25T13:02:07.214Z,10.15
2022-09-25T13:04:47.185Z,10.63
2022-09-25T13:07:23.383Z,9.18
2022-09-25T13:09:51.288Z,8.82
2022-09-25T13:12:33.163Z,6.70
2022-09-25T13:15:06.788Z,5.57
2022-09-25T13:17:35.382Z,5.85
2022-09-25T13:20:42.173Z,3.95
2022-09-25T13:23:14.978Z,4.22
2022-09-25T13:25:46.414Z,4.50
2022-09-25T13:28:21.300Z,4.90
2022-09-25T13:31:08.956Z,4.95
2022-09-25T13:33:47.090Z,3.78
2022-09-25T13:36:31.836Z,4.07
2022-09-25T13:39:22.335Z,3.50
2022-09-25T13:41:56.891Z,3.65
2022-09-25T13:44:50.834Z,3.60
2022-09-25T13:47:51.367Z,3.63
2022-09-25T13:50:28.051Z,4.60
2022-09-25T13:53:34.946Z,4.20
2022-09-25T13:56:23.783Z,3.50
2022-09-25T13:59:23.301Z,3.92
2022-09-25T14:01:54.942Z,3.60
2022-09-25T14:04:35.828Z,4.05
2022-09-25T14:07:19.531Z,3.78
2022-09-25T14:09:51.421Z,4.25
2022-09-25T14:12:29.928Z,4.00
2022-09-25T14:15:01.858Z,4.70
2022-09-25T14:17:32.444Z,4.28
2022-09-25T14:20:04.415Z,4.22
2022-09-25T14:22:39.242Z,3.30
2022-09-25T14:25:27.368Z,2.85
2022-09-25T14:27:56.860Z,3.45
2022-09-25T14:30:29.031Z,3.28
2022-09-25T14:33:23.083Z,3.25
2022-09-25T14:36:01.713Z,3.30
2022-09-25T14:39:03.700Z,3.60
2022-09-25T14:41:57.510Z,3.30
2022-09-25T14:45:16.632Z,2.50
2022-09-25T14:47:47.428Z,2.03
2022-09-25T14:50:21.646Z,2.20
2022-09-25T14:52:50.452Z,2.08
2022-09-25T14:55:22.382Z,2.22
2022-09-25T14:57:51.871Z,2.13
2022-09-25T15:00:24.484Z,2.47
2022-09-25T15:02:56.220Z,1.92
2022-09-25T15:05:32.817Z,2.13
2022-09-25T15:08:02.655Z,2.10
2022-09-25T15:10:33.632Z,2.33
2022-09-25T15:13:15.859Z,2.08
2022-09-25T15:16:02.328Z,2.80
2022-09-25T15:18:31.280Z,2.75
2022-09-25T15:21:01.433Z,3.10
2022-09-25T15:23:37.329Z,3.35
2022-09-25T15:26:05.569Z,3.40
2022-09-25T15:28:40.146Z,4.13
2022-09-25T15:31:09.504Z,3.83
2022-09-25T15:33:39.203Z,3.08
2022-09-25T15:36:16.659Z,2.92
2022-09-25T15:38:54.907Z,2.75
2022-09-25T15:41:24.411Z,2.80
2022-09-25T15:43:53.427Z,3.30
2022-09-25T15:46:37.858Z,2.72
2022-09-25T15:49:07.224Z,2.95
2022-09-25T15:51:37.148Z,2.92
2022-09-25T15:54:25.768Z,2.70
2022-09-25T15:56:57.228Z,3.63
2022-09-25T15:59:28.463Z,3.58
2022-09-25T16:02:15.298Z,3.80
2022-09-25T16:04:50.365Z,3.55
2022-09-25T16:07:27.158Z,3.90
2022-09-25T16:09:57.081Z,4.07
2022-09-25T16:12:30.945Z,3.95
2022-09-25T16:14:59.665Z,4.13
2022-09-25T16:17:34.594Z,4.38
2022-09-25T16:20:06.039Z,4.55
2022-09-25T16:22:40.997Z,5.13
2022-09-25T16:25:22.154Z,4.32
2022-09-25T16:27:50.579Z,5.22
2022-09-25T16:30:20.669Z,4.28
2022-09-25T16:32:53.762Z,5.07
2022-09-25T16:35:26.000Z,4.32
2022-09-25T16:37:55.018Z,5.10
2022-09-25T16:40:29.118Z,5.70
2022-09-25T16:42:58.855Z,4.82
2022-09-25T16:45:34.076Z,4.88
2022-09-25T16:48:29.041Z,4.28
2022-09-25T16:50:59.879Z,4.47
2022-09-25T16:53:28.495Z,6.30
2022-09-25T16:55:57.879Z,9.98
2022-09-25T16:58:51.187Z,6.13
2022-09-25T17:01:19.552Z,4.10
2022-09-25T17:03:52.765Z,3.47
2022-09-25T17:06:21.947Z,2.80
2022-09-25T17:08:50.387Z,3.03
2022-09-25T17:11:25.242Z,3.83
2022-09-25T17:14:00.064Z,3.50
2022-09-25T17:16:27.876Z,3.90
2022-09-25T17:19:06.490Z,3.00
2022-09-25T17:21:34.466Z,4.03
2022-09-25T17:24:02.759Z,3.63
2022-09-25T17:26:31.682Z,3.10
2022-09-25T17:28:59.863Z,4.43
2022-09-25T17:31:28.437Z,4.75
2022-09-25T17:33:57.632Z,3.80
2022-09-25T17:36:25.310Z,3.35
2022-09-25T17:38:53.247Z,3.08
2022-09-25T17:41:26.668Z,2.70
2022-09-25T17:43:54.463Z,3.10
2022-09-25T17:46:23.303Z,2.88
2022-09-25T17:48:54.502Z,3.40
2022-09-25T17:51:25.846Z,3.53
2022-09-25T17:53:53.860Z,4.35
2022-09-25T17:56:21.803Z,4.60
2022-09-25T17:58:49.574Z,3.50
2022-09-25T18:01:21.860Z,3.20
2022-09-25T18:03:50.098Z,3.47
2022-09-25T18:06:19.202Z,2.65
2022-09-25T18:08:48.807Z,2.30
2022-09-25T18:11:17.276Z,2.92
2022-09-25T18:13:45.300Z,2.63
2022-09-25T18:16:16.762Z,2.50
2022-09-25T18:19:02.899Z,2.70
2022-09-25T18:21:48.264Z,3.10
2022-09-25T18:24:17.779Z,3.90
2022-09-25T18:26:46.647Z,3.33
2022-09-25T18:29:16.804Z,2.80
2022-09-25T18:31:45.378Z,2.50
2022-09-25T18:34:13.366Z,3.15
2022-09-25T18:36:41.332Z,3.72
2022-09-25T18:39:09.631Z,3.30
2022-09-25T18:41:39.594Z,3.03
2022-09-25T18:44:07.975Z,3.08
2022-09-25T18:46:37.353Z,3.45
2022-09-25T18:49:18.965Z,2.90
2022-09-25T18:51:49.508Z,3.15
2022-09-25T18:54:17.739Z,3.33
2022-09-25T18:56:46.939Z,3.20
2022-09-25T18:59:15.282Z,3.30
2022-09-25T19:01:43.963Z,3.00
2022-09-25T19:04:16.895Z,2.90
2022-09-25T19:06:44.667Z,3.70
2022-09-25T19:09:16.405Z,3.17
2022-09-25T19:11:46.746Z,3.13
2022-09-25T19:14:16.465Z,3.58
2022-09-25T19:16:44.628Z,3.88
2022-09-25T19:19:12.636Z,3.45
2022-09-25T19:21:41.727Z,2.70
2022-09-25T19:24:09.612Z,3.05
2022-09-25T19:26:37.842Z,2.90
2022-09-25T19:29:07.190Z,3.10
2022-09-25T19:31:35.133Z,2.70
2022-09-25T19:34:03.133Z,3.20
2022-09-25T19:36:32.739Z,3.55
2022-09-25T19:39:02.362Z,3.20
2022-09-25T19:41:32.184Z,3.05
2022-09-25T19:44:08.153Z,3.88
2022-09-25T19:46:42.044Z,3.65
2022-09-25T19:49:10.088Z,3.22
2022-09-25T19:51:38.627Z,3.10
2022-09-25T19:54:07.407Z,3.22
2022-09-25T19:56:40.451Z,3.45
2022-09-25T19:59:08.786Z,3.40
2022-09-25T20:01:36.756Z,3.10
2022-09-25T20:04:08.446Z,3.20
2022-09-25T20:06:37.640Z,3.53
2022-09-25T20:09:06.037Z,3.60
2022-09-25T20:11:35.584Z,4.13
2022-09-25T20:14:05.984Z,3.20
2022-09-25T20:16:37.299Z,3.25
2022-09-25T20:19:08.048Z,3.22
2022-09-25T20:21:37.840Z,2.92
2022-09-25T20:24:07.985Z,3.75
2022-09-25T20:26:36.863Z,2.88
2022-09-25T20:29:09.564Z,3.53
2022-09-25T20:31:39.210Z,3.33
2022-09-25T20:34:08.657Z,3.35
2022-09-25T20:36:39.034Z,3.30
2022-09-25T20:39:07.582Z,3.05
2022-09-25T20:41:35.726Z,3.72
2022-09-25T20:44:04.080Z,3.72
2022-09-25T20:46:33.379Z,4.45
2022-09-25T20:49:01.943Z,4.25
2022-09-25T20:51:34.801Z,3.63
2022-09-25T20:54:04.722Z,3.70
2022-09-25T20:56:33.897Z,3.78
2022-09-25T20:59:02.951Z,3.40
2022-09-25T21:01:34.632Z,3.50
2022-09-25T21:04:04.029Z,3.78
2022-09-25T21:06:35.250Z,3.95
2022-09-25T21:09:06.125Z,3.67
2022-09-25T21:11:34.616Z,4.40
2022-09-25T21:14:03.912Z,4.50
2022-09-25T21:16:33.938Z,4.65
2022-09-25T21:19:04.708Z,4.32
2022-09-25T21:21:34.755Z,4.15
2022-09-25T21:24:03.255Z,4.30
2022-09-25T21:26:32.761Z,3.13
2022-09-25T21:29:02.069Z,3.40
2022-09-25T21:31:32.467Z,3.90
2022-09-25T21:34:00.906Z,3.38
2022-09-25T21:36:29.975Z,3.65
2022-09-25T21:39:00.945Z,3.45
2022-09-25T21:41:30.726Z,4.05
2022-09-25T21:44:00.104Z,3.13
2022-09-25T21:46:29.197Z,3.92
2022-09-25T21:48:59.204Z,3.90
2022-09-25T21:51:30.029Z,4.18
2022-09-25T21:54:00.931Z,4.13
2022-09-25T21:56:31.446Z,4.82
2022-09-25T21:59:08.386Z,5.35
2022-09-25T22:01:39.357Z,4.47
2022-09-25T22:04:08.937Z,5.00
2022-09-25T22:06:39.690Z,4.40
2022-09-25T22:09:10.898Z,4.53
2022-09-25T22:11:39.510Z,4.45
2022-09-25T22:14:13.274Z,4.60
2022-09-25T22:16:44.387Z,4.53
2022-09-25T22:19:14.366Z,4.03
2022-09-25T22:21:43.802Z,4.25
2022-09-25T22:24:12.968Z,3.83
2022-09-25T22:26:43.010Z,4.20
2022-09-25T22:29:11.764Z,4.07
2022-09-25T22:31:42.868Z,4.50
2022-09-25T22:34:17.811Z,3.72
2022-09-25T22:36:46.234Z,4.40
2022-09-25T22:39:17.330Z,4.03
2022-09-25T22:41:45.475Z,3.70
2022-09-25T22:44:13.230Z,3.95
2022-09-25T22:46:41.635Z,4.25
2022-09-25T22:49:09.418Z,4.22
2022-09-25T22:51:37.247Z,4.00
2022-09-25T22:54:05.338Z,4.32
2022-09-25T22:56:35.641Z,3.78
2022-09-25T22:59:06.090Z,4.35
2022-09-25T23:01:37.739Z,4.45
2022-09-25T23:04:07.809Z,4.35
2022-09-25T23:06:36.847Z,4.32
2022-09-25T23:09:06.965Z,4.10
2022-09-25T23:11:36.410Z,4.53
2022-09-25T23:14:07.051Z,5.10
2022-09-25T23:16:35.952Z,4.25
2022-09-25T23:19:04.664Z,4.57
2022-09-25T23:21:33.155Z,4.20
2022-09-25T23:24:03.583Z,4.28
2022-09-25T23:26:31.595Z,4.57
2022-09-25T23:29:01.969Z,5.00
2022-09-25T23:31:31.023Z,5.10
2022-09-25T23:33:59.652Z,4.65
2022-09-25T23:36:28.365Z,4.63
2022-09-25T23:38:58.978Z,5.05
2022-09-25T23:41:29.017Z,4.53
2022-09-25T23:43:57.606Z,4.93
2022-09-25T23:46:28.575Z,5.05
2022-09-25T23:48:57.142Z,5.00
2022-09-25T23:51:26.110Z,5.10
2022-09-25T23:53:55.074Z,4.60
2022-09-25T23:56:26.045Z,4.28
2022-09-25T23:58:54.488Z,4.90
